createdAt,value
2016-12-27T00:00:14.397Z,73.48
2016-12-27T00:01:14.391Z,72.91
2016-12-27T00:02:14.375Z,73
2016-12-27T00:03:14.363Z,72.91
2016-12-27T00:04:14.351Z,73
2016-12-27T00:05:14.343Z,73
2016-12-27T00:06:14.331Z,73
2016-12-27T00:07:14.318Z,73.19
2016-12-27T00:08:14.308Z,72.91
2016-12-27T00:09:14.295Z,73.1
2016-12-27T00:10:14.286Z,72.91
2016-12-27T00:11:14.273Z,73.29
2016-12-27T00:12:14.264Z,72.88
2016-12-27T00:13:14.251Z,73.1
2016-12-27T00:14:14.240Z,73.16
2016-12-27T00:15:14.226Z,72.97
2016-12-27T00:16:14.219Z,73.38
2016-12-27T00:17:14.210Z,73.29
2016-12-27T00:18:14.500Z,72.91
2016-12-27T00:19:14.184Z,72.72
2016-12-27T00:20:14.171Z,73
2016-12-27T00:21:14.161Z,72.63
2016-12-27T00:22:14.149Z,72.15
2016-12-27T00:23:14.138Z,72.91
2016-12-27T00:24:14.125Z,72.81
2016-12-27T00:25:14.114Z,72.72
2016-12-27T00:26:14.104Z,72.25
2016-12-27T00:27:14.090Z,72.15
2016-12-27T00:28:14.080Z,72.06
2016-12-27T00:29:14.070Z,72.25
2016-12-27T00:30:14.057Z,72.25
2016-12-27T00:31:14.048Z,72.15
2016-12-27T00:32:14.034Z,72.34
2016-12-27T00:33:14.023Z,72.63
2016-12-27T00:34:14.013Z,72.53
2016-12-27T00:35:14.000Z,72.25
2016-12-27T00:36:13.990Z,72.34
2016-12-27T00:37:13.978Z,71.67
2016-12-27T00:38:13.965Z,71.67
2016-12-27T00:39:13.954Z,71.2
2016-12-27T00:40:13.944Z,71.67
2016-12-27T00:41:13.931Z,71.39
2016-12-27T00:42:13.923Z,71.39
2016-12-27T00:43:13.909Z,71.11
2016-12-27T00:44:13.899Z,71.39
2016-12-27T00:45:13.887Z,71.3
2016-12-27T00:46:13.878Z,72.06
2016-12-27T00:47:13.870Z,71.96
2016-12-27T00:48:13.855Z,71.96
2016-12-27T00:49:13.843Z,72.44
2016-12-27T00:50:13.833Z,72.34
2016-12-27T00:51:13.822Z,72.72
2016-12-27T00:52:13.810Z,72.53
2016-12-27T00:53:13.798Z,72.25
2016-12-27T00:54:13.788Z,72.28
2016-12-27T00:55:13.776Z,72.56
2016-12-27T00:56:13.766Z,72.06
2016-12-27T00:57:13.756Z,72.19
2016-12-27T00:58:13.744Z,72
2016-12-27T00:59:13.735Z,72.06
2016-12-27T01:00:13.719Z,72.06
2016-12-27T01:01:13.710Z,71.77
2016-12-27T01:02:13.701Z,71.62
2016-12-27T01:03:13.690Z,72.19
2016-12-27T01:04:13.677Z,72.19
2016-12-27T01:05:13.667Z,72.38
2016-12-27T01:06:13.655Z,72.47
2016-12-27T01:07:13.646Z,72.34
2016-12-27T01:08:13.633Z,71.48
2016-12-27T01:09:13.622Z,71.96
2016-12-27T01:10:13.613Z,71.58
2016-12-27T01:11:13.600Z,71.33
2016-12-27T01:12:13.590Z,71.96
2016-12-27T01:13:13.584Z,71.3
2016-12-27T01:14:13.569Z,71.96
2016-12-27T01:15:13.555Z,71.48
2016-12-27T01:16:13.545Z,71.96
2016-12-27T01:17:13.533Z,72.25
2016-12-27T01:18:13.524Z,72.15
2016-12-27T01:19:13.515Z,72.25
2016-12-27T01:20:13.505Z,72.44
2016-12-27T01:21:13.494Z,72.53
2016-12-27T01:22:13.481Z,73.1
2016-12-27T01:23:13.469Z,73.19
2016-12-27T01:24:13.456Z,73.57
2016-12-27T01:25:13.445Z,73.29
2016-12-27T01:26:13.436Z,73.29
2016-12-27T01:27:13.426Z,73.57
2016-12-27T01:28:13.413Z,73.29
2016-12-27T01:29:13.401Z,73.29
2016-12-27T01:30:13.390Z,73.76
2016-12-27T01:31:13.381Z,73.19
2016-12-27T01:32:13.367Z,73.38
2016-12-27T01:33:13.357Z,72.91
2016-12-27T01:34:13.347Z,73.1
2016-12-27T01:35:13.333Z,73.29
2016-12-27T01:36:13.325Z,72.91
2016-12-27T01:37:13.310Z,73
2016-12-27T01:38:13.300Z,73
2016-12-27T01:39:13.290Z,73
2016-12-27T01:40:13.582Z,73.19
2016-12-27T01:41:13.267Z,73
2016-12-27T01:42:13.257Z,73.57
2016-12-27T01:43:13.242Z,73.1
2016-12-27T01:44:13.233Z,73.29
2016-12-27T01:45:13.221Z,73.19
2016-12-27T01:46:13.211Z,73.29
2016-12-27T01:47:13.200Z,73.38
2016-12-27T01:48:13.195Z,73.67
2016-12-27T01:49:13.177Z,73.67
2016-12-27T01:50:13.167Z,73.57
2016-12-27T01:51:13.154Z,73.76
2016-12-27T01:52:13.145Z,73.96
2016-12-27T01:53:13.134Z,73.48
2016-12-27T01:54:13.124Z,73.71
2016-12-27T01:55:13.110Z,73.8
2016-12-27T01:56:13.102Z,73.76
2016-12-27T01:57:13.090Z,73.76
2016-12-27T01:58:13.080Z,73.8
2016-12-27T01:59:13.071Z,73.71
2016-12-27T02:00:13.055Z,73.8
2016-12-27T02:01:13.045Z,73.76
2016-12-27T02:02:13.032Z,73.9
2016-12-27T02:03:13.025Z,73.71
2016-12-27T02:04:13.012Z,73.61
2016-12-27T02:05:13.304Z,73.8
2016-12-27T02:06:12.990Z,73.71
2016-12-27T02:07:13.282Z,73.9
2016-12-27T02:08:12.967Z,73.71
2016-12-27T02:09:12.993Z,73.9
2016-12-27T02:10:12.947Z,73.42
2016-12-27T02:11:12.933Z,73.42
2016-12-27T02:12:12.928Z,73.23
2016-12-27T02:13:12.913Z,73.52
2016-12-27T02:14:12.903Z,73.61
2016-12-27T02:15:12.894Z,73.04
2016-12-27T02:16:12.882Z,72.95
2016-12-27T02:17:12.874Z,73.33
2016-12-27T02:18:12.858Z,73.14
2016-12-27T02:19:12.851Z,73.14
2016-12-27T02:20:12.837Z,73.38
2016-12-27T02:21:12.826Z,73.57
2016-12-27T02:22:12.817Z,73.86
2016-12-27T02:23:12.806Z,73.67
2016-12-27T02:24:12.795Z,74.33
2016-12-27T02:25:12.781Z,74.24
2016-12-27T02:26:12.776Z,74.33
2016-12-27T02:27:12.761Z,74.43
2016-12-27T02:28:12.750Z,75
2016-12-27T02:29:12.738Z,74.81
2016-12-27T02:30:12.727Z,75
2016-12-27T02:31:12.717Z,75.19
2016-12-27T02:32:12.705Z,75.95
2016-12-27T02:33:12.693Z,75.62
